createdAt,value
2022-09-11T00:00:53.337Z,5.57
2022-09-11T00:03:19.825Z,6.00
2022-09-11T00:05:46.365Z,5.90
2022-09-11T00:08:12.860Z,6.10
2022-09-11T00:10:39.354Z,6.73
2022-09-11T00:13:05.985Z,7.13
2022-09-11T00:15:32.478Z,7.40
2022-09-11T00:17:58.964Z,6.43
2022-09-11T00:20:25.516Z,6.50
2022-09-11T00:22:52.047Z,6.57
2022-09-11T00:25:18.569Z,6.20
2022-09-11T00:27:45.099Z,5.10
2022-09-11T00:30:11.583Z,4.00
2022-09-11T00:32:38.216Z,4.40
2022-09-11T00:35:04.692Z,5.60
2022-09-11T00:37:31.248Z,5.13
2022-09-11T00:39:57.977Z,5.50
2022-09-11T00:42:24.497Z,5.20
2022-09-11T00:44:50.989Z,4.40
2022-09-11T00:47:17.478Z,4.97
2022-09-11T00:49:44.108Z,4.73
2022-09-11T00:52:10.633Z,4.83
2022-09-11T00:54:37.109Z,4.40
2022-09-11T00:57:03.602Z,5.47
2022-09-11T00:59:30.080Z,4.63
2022-09-11T01:01:57.022Z,4.83
2022-09-11T01:04:23.553Z,4.40
2022-09-11T01:06:50.407Z,4.40
2022-09-11T01:09:16.992Z,4.60
2022-09-11T01:11:43.566Z,4.50
2022-09-11T01:14:10.086Z,4.70
2022-09-11T01:16:36.579Z,4.80
2022-09-11T01:19:03.181Z,4.70
2022-09-11T01:21:34.285Z,4.37
2022-09-11T01:24:01.067Z,4.20
2022-09-11T01:26:27.541Z,4.73
2022-09-11T01:28:54.056Z,4.60
2022-09-11T01:31:20.597Z,4.37
2022-09-11T01:33:47.113Z,4.90
2022-09-11T01:36:13.640Z,4.83
2022-09-11T01:38:40.161Z,4.73
2022-09-11T01:41:06.644Z,4.50
2022-09-11T01:43:33.177Z,6.27
2022-09-11T01:45:59.793Z,7.80
2022-09-11T01:48:26.350Z,8.60
2022-09-11T01:50:52.914Z,8.30
2022-09-11T01:53:19.428Z,9.20
2022-09-11T01:55:45.943Z,9.33
2022-09-11T01:58:12.474Z,9.40
2022-09-11T02:00:39.090Z,9.07
2022-09-11T02:03:05.600Z,8.57
2022-09-11T02:05:32.118Z,8.20
2022-09-11T02:07:58.670Z,7.90
2022-09-11T02:10:25.186Z,7.80
2022-09-11T02:12:51.816Z,7.87
2022-09-11T02:15:18.357Z,6.50
2022-09-11T02:17:44.854Z,6.20
2022-09-11T02:20:11.743Z,6.00
2022-09-11T02:22:38.606Z,5.30
2022-09-11T02:25:05.251Z,6.00
2022-09-11T02:27:31.868Z,5.50
2022-09-11T02:29:58.427Z,5.00
2022-09-11T02:32:24.907Z,5.73
2022-09-11T02:34:51.809Z,5.10
2022-09-11T02:37:18.392Z,5.20
2022-09-11T02:39:44.941Z,5.23
2022-09-11T02:42:11.649Z,5.20
2022-09-11T02:44:48.291Z,4.60
2022-09-11T02:47:14.825Z,5.10
2022-09-11T02:49:41.502Z,4.73
2022-09-11T02:52:08.353Z,5.20
2022-09-11T02:54:34.834Z,4.70
2022-09-11T02:57:01.429Z,4.30
2022-09-11T02:59:36.085Z,4.50
2022-09-11T03:02:02.837Z,6.20
2022-09-11T03:04:39.852Z,5.33
2022-09-11T03:07:07.414Z,6.30
2022-09-11T03:09:38.223Z,5.77
2022-09-11T03:12:14.352Z,5.87
2022-09-11T03:14:41.864Z,6.00
2022-09-11T03:17:09.409Z,4.80
2022-09-11T03:19:37.089Z,4.70
2022-09-11T03:22:04.805Z,4.50
2022-09-11T03:24:33.923Z,4.80
2022-09-11T03:40:23.599Z,4.00
2022-09-11T03:42:50.236Z,4.43
2022-09-11T03:45:24.771Z,4.83
2022-09-11T03:47:51.411Z,4.80
2022-09-11T03:50:17.910Z,3.80
2022-09-11T03:52:44.494Z,4.57
2022-09-11T03:55:11.050Z,4.33
2022-09-11T03:57:37.940Z,4.90
2022-09-11T04:00:04.603Z,3.97
2022-09-11T04:02:31.510Z,4.40
2022-09-11T04:04:57.998Z,4.80
2022-09-11T04:07:24.489Z,4.30
2022-09-11T04:09:50.981Z,4.27
2022-09-11T04:12:17.637Z,4.43
2022-09-11T04:14:44.104Z,4.80
2022-09-11T04:17:10.657Z,4.47
2022-09-11T04:19:37.214Z,4.47
2022-09-11T04:22:03.702Z,4.60
2022-09-11T04:24:30.218Z,4.43
2022-09-11T04:27:04.851Z,4.17
2022-09-11T04:29:31.313Z,4.30
2022-09-11T04:31:58.061Z,4.00
2022-09-11T04:34:24.751Z,4.20
2022-09-11T04:36:51.401Z,5.20
2022-09-11T04:39:18.075Z,3.93
2022-09-11T04:41:44.712Z,4.60
2022-09-11T04:44:11.368Z,5.07
2022-09-11T04:46:37.993Z,5.00
2022-09-11T04:49:04.839Z,4.10
2022-09-11T04:51:31.355Z,4.47
2022-09-11T04:53:58.219Z,4.73
2022-09-11T04:56:24.726Z,5.70
2022-09-11T04:58:51.594Z,4.30
2022-09-11T05:01:18.162Z,4.43
2022-09-11T05:03:44.722Z,4.70
2022-09-11T05:06:19.340Z,4.10
2022-09-11T05:11:26.314Z,3.77
2022-09-11T05:13:52.982Z,4.70
2022-09-11T05:16:19.858Z,4.43
2022-09-11T05:18:46.368Z,4.37
2022-09-11T05:21:12.941Z,3.80
2022-09-11T05:23:39.587Z,4.27
2022-09-11T05:26:06.069Z,4.47
2022-09-11T05:28:32.626Z,4.17
2022-09-11T05:31:07.047Z,3.93
2022-09-11T05:33:33.607Z,4.10
2022-09-11T05:36:00.105Z,3.97
2022-09-11T05:38:26.701Z,4.30
2022-09-11T05:43:33.722Z,4.20
2022-09-11T05:46:01.167Z,4.30
2022-09-11T05:48:28.068Z,4.00
2022-09-11T05:50:54.598Z,4.20
2022-09-11T05:53:21.154Z,4.27
2022-09-11T05:55:47.989Z,3.60
2022-09-11T05:58:14.482Z,3.90
2022-09-11T06:00:41.015Z,3.93
2022-09-11T06:03:20.785Z,3.93
2022-09-11T06:05:47.283Z,4.07
2022-09-11T06:08:13.935Z,4.10
2022-09-11T06:10:40.567Z,3.80
2022-09-11T06:13:07.078Z,3.70
2022-09-11T06:15:46.109Z,3.30
2022-09-11T06:20:53.953Z,3.60
2022-09-11T06:23:20.470Z,3.67
2022-09-11T06:25:46.937Z,3.33
2022-09-11T06:28:13.611Z,3.40
2022-09-11T06:30:40.382Z,3.30
2022-09-11T06:46:24.325Z,3.10
2022-09-11T06:48:51.041Z,2.70
2022-09-11T06:51:17.993Z,2.83
2022-09-11T06:53:44.707Z,3.13
2022-09-11T06:56:11.737Z,2.90
2022-09-11T06:58:38.348Z,2.87
2022-09-11T07:01:04.979Z,4.43
2022-09-11T07:03:31.711Z,2.80
2022-09-11T07:05:58.242Z,2.93
2022-09-11T07:08:25.174Z,2.70
2022-09-11T07:10:51.874Z,2.30
2022-09-11T07:15:58.865Z,2.00
2022-09-11T07:18:35.514Z,2.00
2022-09-11T07:21:02.011Z,1.87
2022-09-11T07:23:28.770Z,1.93
2022-09-11T07:25:55.269Z,1.93
2022-09-11T07:28:21.843Z,1.73
2022-09-11T07:30:48.706Z,1.40
2022-09-11T07:33:15.608Z,1.43
2022-09-11T07:35:42.209Z,1.30
2022-09-11T07:38:09.014Z,1.27
2022-09-11T07:40:35.662Z,1.10
2022-09-11T07:43:02.300Z,1.20
2022-09-11T07:45:29.051Z,1.50
2022-09-11T07:47:55.882Z,1.50
2022-09-11T07:50:22.447Z,2.10
2022-09-11T07:52:49.277Z,1.87
2022-09-11T07:55:15.885Z,1.60
2022-09-11T07:57:42.374Z,1.97
2022-09-11T08:00:08.894Z,2.00
2022-09-11T08:02:35.494Z,2.90
2022-09-11T08:05:01.994Z,2.10
2022-09-11T08:07:36.498Z,2.13
2022-09-11T08:10:26.221Z,2.33
2022-09-11T08:12:49.675Z,2.50
2022-09-11T08:15:16.173Z,2.43
2022-09-11T08:17:42.683Z,2.47
2022-09-11T08:20:09.281Z,2.00
2022-09-11T08:22:36.177Z,3.20
2022-09-11T08:25:03.032Z,2.30
2022-09-11T08:27:29.838Z,2.60
2022-09-11T08:29:56.716Z,1.90
2022-09-11T08:32:23.205Z,1.80
2022-09-11T08:34:49.741Z,2.20
2022-09-11T08:37:16.376Z,2.20
2022-09-11T08:39:42.948Z,1.90
2022-09-11T08:42:09.529Z,1.70
2022-09-11T08:44:39.100Z,1.73
2022-09-11T08:47:05.834Z,1.80
2022-09-11T08:49:32.475Z,2.40
2022-09-11T08:51:59.292Z,2.30
2022-09-11T08:54:25.790Z,2.57
2022-09-11T08:56:52.304Z,1.27
2022-09-11T08:59:18.976Z,1.90
2022-09-11T09:01:53.636Z,1.47
2022-09-11T09:04:29.974Z,1.30
2022-09-11T09:07:01.443Z,1.37
2022-09-11T09:09:30.758Z,1.13
2022-09-11T09:14:41.327Z,1.20
2022-09-11T09:17:07.844Z,1.10
2022-09-11T09:19:34.673Z,0.80
2022-09-11T09:22:02.901Z,0.70
2022-09-11T09:24:38.550Z,0.90
2022-09-11T09:27:05.145Z,0.80
2022-09-11T09:29:40.425Z,1.17
2022-09-11T09:32:07.073Z,1.90
2022-09-11T09:34:33.591Z,1.00
2022-09-11T09:37:00.072Z,1.13
2022-09-11T09:39:27.603Z,1.10
2022-09-11T09:41:54.233Z,0.80
2022-09-11T09:44:20.757Z,0.70
2022-09-11T09:46:50.866Z,0.70
2022-09-11T09:49:17.794Z,0.97
2022-09-11T09:51:44.424Z,0.80
2022-09-11T09:54:11.243Z,0.90
2022-09-11T09:56:38.114Z,1.00
2022-09-11T09:59:05.002Z,0.90
2022-09-11T10:01:31.883Z,0.83
2022-09-11T10:04:10.292Z,0.90
2022-09-11T10:06:48.890Z,0.70
2022-09-11T10:09:34.958Z,0.80
2022-09-11T10:12:02.861Z,0.90
2022-09-11T10:14:50.479Z,1.10
2022-09-11T10:17:17.650Z,0.90
2022-09-11T10:19:47.395Z,1.03
2022-09-11T10:22:15.107Z,1.00
2022-09-11T10:24:44.120Z,1.00
2022-09-11T10:27:11.623Z,1.20
2022-09-11T10:29:40.496Z,0.80
2022-09-11T10:32:21.126Z,1.10
2022-09-11T10:34:47.921Z,0.80
2022-09-11T10:37:17.003Z,1.03
2022-09-11T10:39:49.237Z,0.90
2022-09-11T10:42:17.168Z,1.00
2022-09-11T10:44:43.667Z,1.20
2022-09-11T10:47:11.271Z,1.40
2022-09-11T10:49:40.106Z,1.00
2022-09-11T10:52:06.995Z,1.07
2022-09-11T10:54:33.521Z,1.00
2022-09-11T10:57:01.055Z,1.00
2022-09-11T10:59:28.757Z,0.90
2022-09-11T11:04:39.905Z,0.80
2022-09-11T11:07:06.782Z,0.90
2022-09-11T11:09:33.601Z,1.00
2022-09-11T11:12:10.786Z,0.80
2022-09-11T11:14:37.318Z,0.80
2022-09-11T11:17:03.834Z,0.70
2022-09-11T11:19:30.433Z,0.60
2022-09-11T11:21:56.963Z,0.77
2022-09-11T11:27:13.085Z,1.00
2022-09-11T11:29:39.566Z,1.00
2022-09-11T11:32:06.116Z,1.30
2022-09-11T11:34:32.649Z,1.73
2022-09-11T11:36:59.133Z,2.53
2022-09-11T11:39:27.684Z,2.10
2022-09-11T11:41:54.183Z,1.30
2022-09-11T11:44:20.697Z,1.30
2022-09-11T11:46:47.273Z,1.00
2022-09-11T11:49:13.767Z,1.20
2022-09-11T11:51:40.294Z,1.13
2022-09-11T11:54:06.821Z,1.77
2022-09-11T11:56:33.310Z,1.80
2022-09-11T11:58:59.851Z,0.90
2022-09-11T12:01:26.381Z,1.10
2022-09-11T12:03:52.897Z,0.90
2022-09-11T12:06:19.509Z,0.97
2022-09-11T12:08:46.025Z,0.60
2022-09-11T12:11:12.557Z,0.73
2022-09-11T12:13:39.223Z,0.63
2022-09-11T12:16:10.624Z,0.70
2022-09-11T12:18:37.761Z,0.50
2022-09-11T12:23:46.937Z,0.50
2022-09-11T12:26:21.631Z,0.60
2022-09-11T12:28:48.202Z,0.30
2022-09-11T12:31:14.739Z,0.30
2022-09-11T12:33:41.254Z,0.10
2022-09-11T12:36:07.911Z,0.27
2022-09-11T12:38:34.449Z,0.20
2022-09-11T12:41:00.956Z,0.10
2022-09-11T12:43:27.534Z,0.10
2022-09-11T12:45:54.038Z,0.20
2022-09-11T12:48:20.615Z,0.40
2022-09-11T12:50:47.232Z,0.20
2022-09-11T12:53:13.853Z,0.10
2022-09-11T12:55:40.341Z,0.20
2022-09-11T12:58:06.881Z,0.20
2022-09-11T13:00:33.399Z,0.10
2022-09-11T13:02:59.933Z,0.10
2022-09-11T13:05:26.488Z,0.20
2022-09-11T13:07:53.026Z,0.30
2022-09-11T13:10:19.562Z,0.20
2022-09-11T13:12:46.201Z,0.20
2022-09-11T13:15:12.761Z,0.30
2022-09-11T13:17:39.286Z,0.20
2022-09-11T13:20:05.758Z,0.20
2022-09-11T13:22:32.252Z,0.20
2022-09-11T13:24:58.758Z,0.20
2022-09-11T13:27:25.293Z,0.23
2022-09-11T13:29:52.162Z,0.20
2022-09-11T13:32:18.730Z,0.23
2022-09-11T13:34:45.257Z,0.20
2022-09-11T13:37:11.772Z,0.30
2022-09-11T13:39:38.499Z,0.30
2022-09-11T13:42:05.038Z,0.30
2022-09-11T13:44:31.519Z,0.40
2022-09-11T13:46:58.192Z,0.40
2022-09-11T13:49:24.761Z,0.40
2022-09-11T13:51:51.281Z,0.30
2022-09-11T13:54:17.788Z,0.40
2022-09-11T13:56:44.261Z,0.40
2022-09-11T13:59:10.825Z,0.60
2022-09-11T14:01:37.371Z,0.40
2022-09-11T14:04:03.869Z,0.50
2022-09-11T14:06:30.404Z,0.30
2022-09-11T14:08:56.912Z,0.37
2022-09-11T14:11:23.397Z,0.47
2022-09-11T14:13:49.941Z,0.40
2022-09-11T14:16:16.818Z,0.60
2022-09-11T14:18:43.354Z,0.70
2022-09-11T14:21:09.880Z,0.47
2022-09-11T14:23:36.421Z,0.50
2022-09-11T14:26:02.945Z,0.60
2022-09-11T14:28:29.468Z,0.50
2022-09-11T14:30:56.377Z,1.10
2022-09-11T14:33:22.956Z,0.60
2022-09-11T14:35:49.441Z,0.60
2022-09-11T14:38:16.000Z,0.60
2022-09-11T14:40:42.517Z,1.00
2022-09-11T14:43:09.040Z,0.77
2022-09-11T14:45:35.531Z,0.97
2022-09-11T14:48:02.089Z,0.60
2022-09-11T14:50:28.609Z,0.90
2022-09-11T14:52:55.098Z,0.93
2022-09-11T14:55:21.673Z,0.63
2022-09-11T14:57:48.205Z,0.80
2022-09-11T15:00:14.711Z,1.00
2022-09-11T15:02:41.253Z,0.87
2022-09-11T15:05:07.715Z,0.80
2022-09-11T15:07:35.445Z,0.80
2022-09-11T15:10:02.031Z,0.90
2022-09-11T15:12:28.510Z,0.80
2022-09-11T15:14:57.525Z,0.93
2022-09-11T15:17:25.563Z,1.00
2022-09-11T15:19:52.166Z,0.90
2022-09-11T15:22:18.683Z,0.90
2022-09-11T15:24:45.241Z,0.70
2022-09-11T15:27:12.112Z,1.20
2022-09-11T15:29:38.596Z,0.63
2022-09-11T15:32:05.076Z,1.00
2022-09-11T15:37:11.978Z,1.50
2022-09-11T15:39:38.508Z,1.60
2022-09-11T15:42:05.207Z,2.10
2022-09-11T15:44:31.710Z,2.20
2022-09-11T15:46:58.208Z,2.40
2022-09-11T15:49:24.696Z,3.20
2022-09-11T15:51:51.265Z,2.73
2022-09-11T15:54:18.356Z,4.30
2022-09-11T15:56:52.921Z,1.93
2022-09-11T15:59:28.065Z,2.03
2022-09-11T16:01:54.834Z,1.97
2022-09-11T16:04:21.573Z,1.77
2022-09-11T16:06:48.161Z,2.00
2022-09-11T16:09:28.785Z,2.57
2022-09-11T16:11:56.329Z,1.80
2022-09-11T16:14:32.830Z,2.40
2022-09-11T16:17:08.106Z,2.27
2022-09-11T16:19:39.812Z,2.20
2022-09-11T16:22:18.046Z,2.10
2022-09-11T16:24:51.982Z,1.87
2022-09-11T16:27:27.114Z,1.97
2022-09-11T16:30:39.628Z,1.80
2022-09-11T16:32:56.120Z,2.30
2022-09-11T16:35:23.203Z,2.20
2022-09-11T16:37:49.787Z,2.30
2022-09-11T16:40:25.876Z,2.50
2022-09-11T16:43:01.013Z,3.30
2022-09-11T16:45:27.734Z,5.47
2022-09-11T16:48:02.872Z,6.60
2022-09-11T16:50:29.413Z,5.20
2022-09-11T16:53:04.488Z,2.80
2022-09-11T16:55:39.802Z,1.97
2022-09-11T16:58:14.940Z,2.03
2022-09-11T17:00:51.202Z,2.40
2022-09-11T17:03:18.847Z,2.60
2022-09-11T17:05:53.534Z,2.30
2022-09-11T17:08:30.050Z,2.60
2022-09-11T17:11:05.307Z,2.50
2022-09-11T17:13:31.835Z,2.33
2022-09-11T17:15:58.474Z,3.77
2022-09-11T17:18:25.035Z,6.13
2022-09-11T17:21:00.233Z,4.47
2022-09-11T17:23:26.856Z,4.67
2022-09-11T17:25:53.433Z,3.07
2022-09-11T17:28:27.889Z,2.73
2022-09-11T17:30:54.846Z,3.20
2022-09-11T17:33:21.385Z,2.67
2022-09-11T17:35:48.238Z,2.50
2022-09-11T17:38:23.411Z,3.80
2022-09-11T17:40:58.540Z,3.67
2022-09-11T17:43:37.558Z,3.30
2022-09-11T17:46:04.549Z,3.20
2022-09-11T17:48:31.491Z,3.30
2022-09-11T17:51:06.579Z,2.77
2022-09-11T17:53:42.128Z,2.70
2022-09-11T17:56:09.670Z,2.93
2022-09-11T17:58:36.185Z,2.70
2022-09-11T18:01:02.991Z,2.80
2022-09-11T18:03:30.217Z,2.67
2022-09-11T18:05:56.749Z,3.10
2022-09-11T18:08:23.253Z,3.00
2022-09-11T18:13:30.222Z,3.60
2022-09-11T18:15:56.882Z,7.93
2022-09-11T18:18:31.636Z,8.83
2022-09-11T18:20:59.257Z,13.90
2022-09-11T18:23:25.870Z,15.90
2022-09-11T18:26:00.667Z,9.67
2022-09-11T18:28:27.258Z,5.70
2022-09-11T18:30:53.757Z,4.23
2022-09-11T18:33:20.249Z,4.23
2022-09-11T18:35:46.860Z,2.60
2022-09-11T18:38:13.547Z,4.67
2022-09-11T18:40:49.779Z,12.03
2022-09-11T18:43:25.371Z,14.67
2022-09-11T18:45:52.032Z,5.40
2022-09-11T18:48:31.425Z,5.77
2022-09-11T18:50:59.964Z,5.60
2022-09-11T18:53:26.799Z,9.83
2022-09-11T18:55:53.346Z,7.17
2022-09-11T18:58:19.828Z,6.93
2022-09-11T19:00:46.412Z,7.33
2022-09-11T19:03:13.080Z,5.10
2022-09-11T19:05:47.838Z,5.70
2022-09-11T19:08:22.405Z,4.97
2022-09-11T19:10:48.945Z,3.10
2022-09-11T19:13:23.510Z,3.20
2022-09-11T19:15:50.120Z,3.10
2022-09-11T19:18:17.003Z,3.10
2022-09-11T19:20:43.517Z,2.97
2022-09-11T19:23:21.393Z,3.07
2022-09-11T19:25:57.818Z,3.50
2022-09-11T19:28:24.675Z,3.73
2022-09-11T19:31:00.739Z,3.70
2022-09-11T19:36:07.841Z,4.10
2022-09-11T19:38:34.384Z,4.03
2022-09-11T19:41:12.458Z,4.17
2022-09-11T19:43:48.966Z,3.23
2022-09-11T19:46:15.684Z,2.77
2022-09-11T19:48:42.330Z,2.83
2022-09-11T19:51:08.827Z,3.33
2022-09-11T19:53:35.325Z,4.60
2022-09-11T19:56:01.972Z,3.60
2022-09-11T19:58:28.484Z,10.00
2022-09-11T20:00:55.110Z,5.70
2022-09-11T20:03:31.689Z,4.13
2022-09-11T20:06:11.540Z,3.40
2022-09-11T20:08:48.106Z,2.90
2022-09-11T20:11:14.606Z,2.93
2022-09-11T20:13:42.197Z,3.50
2022-09-11T20:16:09.497Z,3.53
2022-09-11T20:18:36.280Z,4.23
2022-09-11T20:21:12.084Z,6.20
2022-09-11T20:23:48.256Z,3.87
2022-09-11T20:26:17.269Z,4.33
2022-09-11T20:28:45.245Z,6.00
2022-09-11T20:31:20.353Z,14.90
2022-09-11T20:33:47.499Z,4.50
2022-09-11T20:36:14.005Z,3.00
2022-09-11T20:38:40.574Z,2.73
2022-09-11T20:54:34.010Z,3.40
2022-09-11T20:57:02.038Z,3.47
2022-09-11T20:59:28.932Z,3.30
2022-09-11T21:02:03.597Z,2.80
2022-09-11T21:04:31.154Z,3.17
2022-09-11T21:09:38.446Z,2.83
2022-09-11T21:14:48.980Z,3.50
2022-09-11T21:19:57.496Z,3.57
2022-09-11T21:22:25.169Z,3.50
2022-09-11T21:25:05.031Z,3.20
2022-09-11T21:27:31.864Z,3.23
2022-09-11T21:29:59.134Z,3.37
2022-09-11T21:32:26.145Z,3.43
2022-09-11T21:35:05.027Z,3.50
2022-09-11T21:37:31.631Z,3.33
2022-09-11T21:39:58.382Z,3.30
2022-09-11T21:42:24.925Z,3.73
2022-09-11T21:44:55.710Z,3.20
2022-09-11T21:47:22.626Z,3.67
2022-09-11T21:49:49.210Z,3.53
2022-09-11T21:52:15.681Z,3.40
2022-09-11T21:54:43.164Z,3.50
2022-09-11T21:57:09.974Z,3.47
2022-09-11T21:59:44.988Z,3.67
2022-09-11T22:02:11.643Z,3.33
2022-09-11T22:04:38.767Z,3.10
2022-09-11T22:07:07.407Z,3.97
2022-09-11T22:09:45.134Z,3.57
2022-09-11T22:12:25.175Z,3.33
2022-09-11T22:15:01.899Z,3.40
2022-09-11T22:17:37.893Z,3.70
2022-09-11T22:22:56.862Z,3.43
2022-09-11T22:25:35.193Z,3.90
2022-09-11T22:28:02.691Z,3.90
2022-09-11T22:30:31.455Z,3.87
2022-09-11T22:33:08.057Z,3.50
2022-09-11T22:35:35.177Z,3.77
2022-09-11T22:38:15.323Z,3.97
2022-09-11T22:40:55.309Z,3.60
2022-09-11T22:43:35.318Z,3.90
2022-09-11T22:46:02.207Z,3.83
2022-09-11T22:48:28.810Z,3.70
2022-09-11T22:50:55.302Z,3.90
2022-09-11T22:53:22.828Z,4.20
2022-09-11T22:55:49.704Z,3.77
2022-09-11T22:58:17.300Z,4.10
2022-09-11T23:00:55.373Z,4.00
2022-09-11T23:03:33.951Z,3.47
2022-09-11T23:06:01.672Z,3.60
2022-09-11T23:08:28.546Z,3.50
2022-09-11T23:10:56.130Z,3.93
2022-09-11T23:13:23.034Z,4.40
2022-09-11T23:15:49.527Z,4.40
2022-09-11T23:18:16.381Z,3.73
2022-09-11T23:20:50.421Z,3.33
2022-09-11T23:23:25.027Z,3.73
2022-09-11T23:26:00.704Z,3.60
2022-09-11T23:28:37.145Z,4.20
2022-09-11T23:31:03.850Z,3.73
2022-09-11T23:33:30.369Z,3.13
2022-09-11T23:35:57.337Z,3.10
2022-09-11T23:38:24.235Z,3.10
2022-09-11T23:41:00.610Z,2.57
2022-09-11T23:43:28.256Z,2.67
2022-09-11T23:45:55.187Z,3.23
2022-09-11T23:48:22.088Z,2.83
2022-09-11T23:53:29.333Z,2.87
2022-09-11T23:56:03.985Z,2.63
2022-09-11T23:58:40.152Z,3.70
